sensor_id;sensor_type;location;lat;lon;timestamp;P1;durP1;ratioP1;P2;durP2;ratioP2
54787;SDS011;59598;48.112;16.280;2023-03-14T00:01:51;6.25;;;3.40;;
54787;SDS011;59598;48.112;16.280;2023-03-14T00:04:23;9.90;;;3.72;;
54787;SDS011;59598;48.112;16.280;2023-03-14T00:06:56;7.35;;;3.92;;
54787;SDS011;59598;48.112;16.280;2023-03-14T00:09:32;8.55;;;3.72;;
54787;SDS011;59598;48.112;16.280;2023-03-14T00:12:06;5.88;;;3.80;;
54787;SDS011;59598;48.112;16.280;2023-03-14T00:14:38;5.70;;;3.47;;
54787;SDS011;59598;48.112;16.280;2023-03-14T00:17:15;5.38;;;3.53;;
54787;SDS011;59598;48.112;16.280;2023-03-14T00:19:47;7.97;;;4.57;;
54787;SDS011;59598;48.112;16.280;2023-03-14T00:22:20;4.75;;;3.50;;
54787;SDS011;59598;48.112;16.280;2023-03-14T00:24:52;6.10;;;3.65;;
54787;SDS011;59598;48.112;16.280;2023-03-14T00:27:24;6.68;;;3.80;;
54787;SDS011;59598;48.112;16.280;2023-03-14T00:29:58;4.22;;;3.35;;
54787;SDS011;59598;48.112;16.280;2023-03-14T00:32:31;4.70;;;3.42;;
54787;SDS011;59598;48.112;16.280;2023-03-14T00:35:02;5.88;;;3.50;;
54787;SDS011;59598;48.112;16.280;2023-03-14T00:37:36;5.68;;;3.40;;
54787;SDS011;59598;48.112;16.280;2023-03-14T00:40:11;8.65;;;4.45;;
54787;SDS011;59598;48.112;16.280;2023-03-14T00:42:43;7.20;;;4.07;;
54787;SDS011;59598;48.112;16.280;2023-03-14T00:45:14;7.15;;;3.08;;
54787;SDS011;59598;48.112;16.280;2023-03-14T00:47:46;6.35;;;3.38;;
54787;SDS011;59598;48.112;16.280;2023-03-14T00:50:22;4.68;;;2.90;;
54787;SDS011;59598;48.112;16.280;2023-03-14T00:52:56;8.57;;;3.50;;
54787;SDS011;59598;48.112;16.280;2023-03-14T00:55:29;7.10;;;3.63;;
54787;SDS011;59598;48.112;16.280;2023-03-14T00:58:01;5.57;;;3.30;;
54787;SDS011;59598;48.112;16.280;2023-03-14T01:00:32;6.05;;;3.83;;
54787;SDS011;59598;48.112;16.280;2023-03-14T01:05:42;6.80;;;3.50;;
54787;SDS011;59598;48.112;16.280;2023-03-14T01:08:16;5.63;;;3.47;;
54787;SDS011;59598;48.112;16.280;2023-03-14T01:10:48;4.43;;;3.13;;
54787;SDS011;59598;48.112;16.280;2023-03-14T01:13:28;3.92;;;2.80;;
54787;SDS011;59598;48.112;16.280;2023-03-14T01:16:07;5.38;;;3.28;;
54787;SDS011;59598;48.112;16.280;2023-03-14T01:18:41;5.82;;;3.42;;
54787;SDS011;59598;48.112;16.280;2023-03-14T01:23:58;7.30;;;3.13;;
54787;SDS011;59598;48.112;16.280;2023-03-14T01:26:34;5.15;;;3.25;;
54787;SDS011;59598;48.112;16.280;2023-03-14T01:29:08;6.97;;;3.25;;
54787;SDS011;59598;48.112;16.280;2023-03-14T01:31:39;5.90;;;3.13;;
54787;SDS011;59598;48.112;16.280;2023-03-14T01:34:13;6.70;;;3.60;;
54787;SDS011;59598;48.112;16.280;2023-03-14T01:36:45;5.57;;;3.00;;
54787;SDS011;59598;48.112;16.280;2023-03-14T01:39:17;4.82;;;3.20;;
54787;SDS011;59598;48.112;16.280;2023-03-14T01:41:49;4.35;;;2.95;;
54787;SDS011;59598;48.112;16.280;2023-03-14T01:44:24;6.63;;;3.55;;
54787;SDS011;59598;48.112;16.280;2023-03-14T01:47:17;4.55;;;2.95;;
54787;SDS011;59598;48.112;16.280;2023-03-14T01:50:02;6.00;;;3.05;;
54787;SDS011;59598;48.112;16.280;2023-03-14T01:52:42;6.13;;;3.95;;
54787;SDS011;59598;48.112;16.280;2023-03-14T01:55:23;6.15;;;3.20;;
54787;SDS011;59598;48.112;16.280;2023-03-14T01:58:00;10.25;;;3.42;;
54787;SDS011;59598;48.112;16.280;2023-03-14T02:00:37;5.97;;;3.15;;
54787;SDS011;59598;48.112;16.280;2023-03-14T02:03:13;4.47;;;3.28;;
54787;SDS011;59598;48.112;16.280;2023-03-14T02:05:53;8.85;;;3.20;;
54787;SDS011;59598;48.112;16.280;2023-03-14T02:08:30;5.15;;;3.17;;
54787;SDS011;59598;48.112;16.280;2023-03-14T02:11:02;4.82;;;2.97;;
54787;SDS011;59598;48.112;16.280;2023-03-14T02:13:34;6.88;;;3.75;;
54787;SDS011;59598;48.112;16.280;2023-03-14T02:16:06;4.93;;;3.08;;
54787;SDS011;59598;48.112;16.280;2023-03-14T02:18:38;5.35;;;3.20;;
54787;SDS011;59598;48.112;16.280;2023-03-14T02:27:06;4.53;;;3.55;;
54787;SDS011;59598;48.112;16.280;2023-03-14T02:29:56;8.27;;;2.97;;
54787;SDS011;59598;48.112;16.280;2023-03-14T02:32:35;7.22;;;3.17;;
54787;SDS011;59598;48.112;16.280;2023-03-14T02:35:12;4.40;;;3.10;;
54787;SDS011;59598;48.112;16.280;2023-03-14T02:40:51;3.55;;;3.10;;
54787;SDS011;59598;48.112;16.280;2023-03-14T02:43:23;6.70;;;3.03;;
54787;SDS011;59598;48.112;16.280;2023-03-14T02:45:57;5.60;;;3.25;;
54787;SDS011;59598;48.112;16.280;2023-03-14T02:48:35;6.13;;;3.35;;
54787;SDS011;59598;48.112;16.280;2023-03-14T02:51:24;4.22;;;2.53;;
54787;SDS011;59598;48.112;16.280;2023-03-14T02:54:06;3.88;;;2.80;;
54787;SDS011;59598;48.112;16.280;2023-03-14T02:56:38;7.22;;;2.70;;
54787;SDS011;59598;48.112;16.280;2023-03-14T02:59:09;4.88;;;3.28;;
54787;SDS011;59598;48.112;16.280;2023-03-14T03:01:59;3.28;;;2.55;;
54787;SDS011;59598;48.112;16.280;2023-03-14T03:04:31;7.35;;;3.58;;
54787;SDS011;59598;48.112;16.280;2023-03-14T03:07:05;3.67;;;2.35;;
54787;SDS011;59598;48.112;16.280;2023-03-14T03:09:40;6.45;;;2.75;;
54787;SDS011;59598;48.112;16.280;2023-03-14T03:12:11;6.55;;;2.80;;
54787;SDS011;59598;48.112;16.280;2023-03-14T03:14:46;6.60;;;2.90;;
54787;SDS011;59598;48.112;16.280;2023-03-14T03:17:17;3.83;;;2.80;;
54787;SDS011;59598;48.112;16.280;2023-03-14T03:19:49;6.82;;;2.90;;
54787;SDS011;59598;48.112;16.280;2023-03-14T03:22:26;3.05;;;2.65;;
54787;SDS011;59598;48.112;16.280;2023-03-14T03:24:59;4.50;;;3.60;;
54787;SDS011;59598;48.112;16.280;2023-03-14T03:27:34;6.35;;;2.20;;
54787;SDS011;59598;48.112;16.280;2023-03-14T03:30:07;4.65;;;2.85;;
54787;SDS011;59598;48.112;16.280;2023-03-14T03:32:44;5.53;;;3.10;;
54787;SDS011;59598;48.112;16.280;2023-03-14T03:35:16;5.60;;;2.92;;
54787;SDS011;59598;48.112;16.280;2023-03-14T03:37:54;4.22;;;3.42;;
54787;SDS011;59598;48.112;16.280;2023-03-14T03:40:26;5.15;;;3.35;;
54787;SDS011;59598;48.112;16.280;2023-03-14T03:43:00;5.82;;;3.25;;
54787;SDS011;59598;48.112;16.280;2023-03-14T03:45:34;7.03;;;2.67;;
54787;SDS011;59598;48.112;16.280;2023-03-14T03:48:08;4.03;;;2.95;;
54787;SDS011;59598;48.112;16.280;2023-03-14T03:50:45;5.03;;;3.05;;
54787;SDS011;59598;48.112;16.280;2023-03-14T03:53:18;4.65;;;3.22;;
54787;SDS011;59598;48.112;16.280;2023-03-14T03:55:52;4.60;;;3.33;;
54787;SDS011;59598;48.112;16.280;2023-03-14T03:58:25;4.97;;;2.92;;
54787;SDS011;59598;48.112;16.280;2023-03-14T04:01:01;3.22;;;2.92;;
54787;SDS011;59598;48.112;16.280;2023-03-14T04:03:33;6.60;;;3.15;;
54787;SDS011;59598;48.112;16.280;2023-03-14T04:06:08;7.68;;;3.40;;
54787;SDS011;59598;48.112;16.280;2023-03-14T04:08:44;6.22;;;3.58;;
54787;SDS011;59598;48.112;16.280;2023-03-14T04:11:19;3.83;;;2.90;;
54787;SDS011;59598;48.112;16.280;2023-03-14T04:13:53;5.28;;;3.47;;
54787;SDS011;59598;48.112;16.280;2023-03-14T04:16:27;4.60;;;3.40;;
54787;SDS011;59598;48.112;16.280;2023-03-14T04:19:00;4.93;;;3.80;;
54787;SDS011;59598;48.112;16.280;2023-03-14T04:21:33;4.35;;;3.22;;
54787;SDS011;59598;48.112;16.280;2023-03-14T04:24:11;5.97;;;3.35;;
54787;SDS011;59598;48.112;16.280;2023-03-14T04:26:44;7.20;;;3.35;;
54787;SDS011;59598;48.112;16.280;2023-03-14T04:29:20;5.03;;;3.65;;
54787;SDS011;59598;48.112;16.280;2023-03-14T04:31:56;4.32;;;3.10;;
54787;SDS011;59598;48.112;16.280;2023-03-14T04:34:30;4.85;;;3.45;;
54787;SDS011;59598;48.112;16.280;2023-03-14T04:37:05;3.47;;;3.17;;
54787;SDS011;59598;48.112;16.280;2023-03-14T04:39:39;7.32;;;3.40;;
54787;SDS011;59598;48.112;16.280;2023-03-14T04:42:13;5.05;;;2.70;;
54787;SDS011;59598;48.112;16.280;2023-03-14T04:44:44;6.80;;;2.92;;
54787;SDS011;59598;48.112;16.280;2023-03-14T04:47:20;3.95;;;2.70;;
54787;SDS011;59598;48.112;16.280;2023-03-14T04:49:51;3.58;;;2.58;;
54787;SDS011;59598;48.112;16.280;2023-03-14T04:52:24;8.20;;;3.40;;
54787;SDS011;59598;48.112;16.280;2023-03-14T04:55:01;5.80;;;3.00;;
54787;SDS011;59598;48.112;16.280;2023-03-14T04:57:37;4.15;;;2.85;;
54787;SDS011;59598;48.112;16.280;2023-03-14T05:00:09;4.32;;;2.80;;
54787;SDS011;59598;48.112;16.280;2023-03-14T05:02:41;6.32;;;3.13;;
54787;SDS011;59598;48.112;16.280;2023-03-14T05:05:12;4.60;;;2.83;;
54787;SDS011;59598;48.112;16.280;2023-03-14T05:07:45;3.70;;;2.53;;
54787;SDS011;59598;48.112;16.280;2023-03-14T05:10:17;4.60;;;2.92;;
54787;SDS011;59598;48.112;16.280;2023-03-14T05:12:48;4.55;;;2.42;;
54787;SDS011;59598;48.112;16.280;2023-03-14T05:15:20;4.88;;;2.75;;
54787;SDS011;59598;48.112;16.280;2023-03-14T05:17:52;4.13;;;2.72;;
54787;SDS011;59598;48.112;16.280;2023-03-14T05:20:24;2.90;;;2.53;;
54787;SDS011;59598;48.112;16.280;2023-03-14T05:22:58;4.57;;;3.08;;
54787;SDS011;59598;48.112;16.280;2023-03-14T05:25:35;4.60;;;2.72;;
54787;SDS011;59598;48.112;16.280;2023-03-14T05:28:12;4.30;;;3.17;;
54787;SDS011;59598;48.112;16.280;2023-03-14T05:30:47;4.55;;;2.70;;
54787;SDS011;59598;48.112;16.280;2023-03-14T05:33:21;3.05;;;2.30;;
54787;SDS011;59598;48.112;16.280;2023-03-14T05:35:53;4.05;;;3.08;;
54787;SDS011;59598;48.112;16.280;2023-03-14T05:38:27;3.88;;;3.05;;
54787;SDS011;59598;48.112;16.280;2023-03-14T05:41:01;6.47;;;3.13;;
54787;SDS011;59598;48.112;16.280;2023-03-14T05:43:34;7.15;;;3.03;;
54787;SDS011;59598;48.112;16.280;2023-03-14T05:46:06;6.20;;;3.15;;
54787;SDS011;59598;48.112;16.280;2023-03-14T05:48:37;4.82;;;3.10;;
54787;SDS011;59598;48.112;16.280;2023-03-14T05:51:09;14.75;;;7.82;;
54787;SDS011;59598;48.112;16.280;2023-03-14T05:53:45;12.27;;;5.63;;
54787;SDS011;59598;48.112;16.280;2023-03-14T05:58:48;4.90;;;3.88;;
54787;SDS011;59598;48.112;16.280;2023-03-14T06:01:24;5.32;;;3.10;;
54787;SDS011;59598;48.112;16.280;2023-03-14T06:03:56;5.55;;;3.00;;
54787;SDS011;59598;48.112;16.280;2023-03-14T06:06:27;5.80;;;3.13;;
54787;SDS011;59598;48.112;16.280;2023-03-14T06:08:59;8.55;;;3.10;;
54787;SDS011;59598;48.112;16.280;2023-03-14T06:11:33;6.40;;;3.83;;
54787;SDS011;59598;48.112;16.280;2023-03-14T06:14:09;26.27;;;13.60;;
54787;SDS011;59598;48.112;16.280;2023-03-14T06:16:44;10.63;;;5.90;;
54787;SDS011;59598;48.112;16.280;2023-03-14T06:19:15;9.73;;;5.03;;
54787;SDS011;59598;48.112;16.280;2023-03-14T06:21:47;6.07;;;3.50;;
54787;SDS011;59598;48.112;16.280;2023-03-14T06:24:24;4.78;;;3.63;;
54787;SDS011;59598;48.112;16.280;2023-03-14T06:26:55;7.57;;;4.10;;
54787;SDS011;59598;48.112;16.280;2023-03-14T06:29:27;5.80;;;4.13;;
54787;SDS011;59598;48.112;16.280;2023-03-14T06:32:04;9.98;;;3.72;;
54787;SDS011;59598;48.112;16.280;2023-03-14T06:34:41;7.32;;;3.40;;
54787;SDS011;59598;48.112;16.280;2023-03-14T06:37:19;5.85;;;3.30;;
54787;SDS011;59598;48.112;16.280;2023-03-14T06:39:53;4.97;;;4.10;;
54787;SDS011;59598;48.112;16.280;2023-03-14T06:42:25;8.82;;;4.30;;
54787;SDS011;59598;48.112;16.280;2023-03-14T06:45:00;5.97;;;3.97;;
54787;SDS011;59598;48.112;16.280;2023-03-14T06:47:33;9.30;;;4.47;;
54787;SDS011;59598;48.112;16.280;2023-03-14T06:50:10;9.23;;;4.75;;
54787;SDS011;59598;48.112;16.280;2023-03-14T06:52:43;11.07;;;4.13;;
54787;SDS011;59598;48.112;16.280;2023-03-14T06:55:18;11.63;;;4.50;;
54787;SDS011;59598;48.112;16.280;2023-03-14T06:57:51;10.23;;;4.78;;
54787;SDS011;59598;48.112;16.280;2023-03-14T07:00:22;12.63;;;5.30;;
54787;SDS011;59598;48.112;16.280;2023-03-14T07:02:57;8.73;;;4.70;;
54787;SDS011;59598;48.112;16.280;2023-03-14T07:05:29;7.13;;;4.10;;
54787;SDS011;59598;48.112;16.280;2023-03-14T07:08:09;5.25;;;3.95;;
54787;SDS011;59598;48.112;16.280;2023-03-14T07:10:56;5.60;;;3.78;;
54787;SDS011;59598;48.112;16.280;2023-03-14T07:13:33;5.32;;;3.50;;
54787;SDS011;59598;48.112;16.280;2023-03-14T07:16:10;5.50;;;3.67;;
54787;SDS011;59598;48.112;16.280;2023-03-14T07:18:46;3.15;;;2.40;;
54787;SDS011;59598;48.112;16.280;2023-03-14T07:21:19;5.82;;;3.13;;
54787;SDS011;59598;48.112;16.280;2023-03-14T07:23:54;2.45;;;1.70;;
54787;SDS011;59598;48.112;16.280;2023-03-14T07:26:26;4.90;;;2.58;;
54787;SDS011;59598;48.112;16.280;2023-03-14T07:28:57;1.15;;;0.90;;
54787;SDS011;59598;48.112;16.280;2023-03-14T07:31:29;1.05;;;0.95;;
54787;SDS011;59598;48.112;16.280;2023-03-14T07:34:00;1.05;;;1.05;;
54787;SDS011;59598;48.112;16.280;2023-03-14T07:36:32;1.00;;;1.00;;
54787;SDS011;59598;48.112;16.280;2023-03-14T07:39:03;1.02;;;0.98;;
54787;SDS011;59598;48.112;16.280;2023-03-14T07:41:37;0.70;;;0.70;;
54787;SDS011;59598;48.112;16.280;2023-03-14T07:44:11;0.93;;;0.93;;
54787;SDS011;59598;48.112;16.280;2023-03-14T07:46:43;7.03;;;2.88;;
54787;SDS011;59598;48.112;16.280;2023-03-14T07:49:14;4.13;;;2.88;;
54787;SDS011;59598;48.112;16.280;2023-03-14T07:51:48;5.63;;;2.78;;
54787;SDS011;59598;48.112;16.280;2023-03-14T07:54:22;0.85;;;0.82;;
54787;SDS011;59598;48.112;16.280;2023-03-14T07:56:55;4.07;;;1.80;;
54787;SDS011;59598;48.112;16.280;2023-03-14T07:59:31;3.65;;;1.25;;
54787;SDS011;59598;48.112;16.280;2023-03-14T08:02:08;1.63;;;1.52;;
54787;SDS011;59598;48.112;16.280;2023-03-14T08:04:43;0.88;;;0.65;;
54787;SDS011;59598;48.112;16.280;2023-03-14T08:07:15;0.90;;;0.90;;
54787;SDS011;59598;48.112;16.280;2023-03-14T08:09:46;4.13;;;0.75;;
54787;SDS011;59598;48.112;16.280;2023-03-14T08:14:55;1.25;;;0.60;;
54787;SDS011;59598;48.112;16.280;2023-03-14T08:17:29;0.80;;;0.80;;
54787;SDS011;59598;48.112;16.280;2023-03-14T08:20:03;0.75;;;0.75;;
54787;SDS011;59598;48.112;16.280;2023-03-14T08:22:39;0.60;;;0.60;;
54787;SDS011;59598;48.112;16.280;2023-03-14T08:25:10;0.70;;;0.70;;
54787;SDS011;59598;48.112;16.280;2023-03-14T08:27:45;0.75;;;0.75;;
54787;SDS011;59598;48.112;16.280;2023-03-14T08:30:17;3.25;;;1.77;;
54787;SDS011;59598;48.112;16.280;2023-03-14T08:32:55;3.67;;;2.28;;
54787;SDS011;59598;48.112;16.280;2023-03-14T08:35:33;4.50;;;2.45;;
54787;SDS011;59598;48.112;16.280;2023-03-14T08:38:08;1.23;;;1.15;;
54787;SDS011;59598;48.112;16.280;2023-03-14T08:40:42;2.65;;;1.70;;
54787;SDS011;59598;48.112;16.280;2023-03-14T08:43:14;1.15;;;1.05;;
54787;SDS011;59598;48.112;16.280;2023-03-14T08:45:47;2.75;;;1.92;;
54787;SDS011;59598;48.112;16.280;2023-03-14T08:48:25;4.07;;;2.53;;
54787;SDS011;59598;48.112;16.280;2023-03-14T08:51:04;0.88;;;0.85;;
54787;SDS011;59598;48.112;16.280;2023-03-14T08:53:41;1.00;;;1.00;;
54787;SDS011;59598;48.112;16.280;2023-03-14T08:56:13;0.70;;;0.70;;
54787;SDS011;59598;48.112;16.280;2023-03-14T08:58:44;0.63;;;0.63;;
54787;SDS011;59598;48.112;16.280;2023-03-14T09:01:15;0.80;;;0.80;;
54787;SDS011;59598;48.112;16.280;2023-03-14T09:03:49;0.70;;;0.70;;
54787;SDS011;59598;48.112;16.280;2023-03-14T09:06:21;0.75;;;0.75;;
54787;SDS011;59598;48.112;16.280;2023-03-14T09:08:53;0.70;;;0.70;;
54787;SDS011;59598;48.112;16.280;2023-03-14T09:11:27;0.95;;;0.90;;
54787;SDS011;59598;48.112;16.280;2023-03-14T09:13:59;0.70;;;0.70;;
54787;SDS011;59598;48.112;16.280;2023-03-14T09:16:32;0.88;;;0.88;;
54787;SDS011;59598;48.112;16.280;2023-03-14T09:19:07;0.70;;;0.70;;
54787;SDS011;59598;48.112;16.280;2023-03-14T09:21:38;1.13;;;1.02;;
54787;SDS011;59598;48.112;16.280;2023-03-14T09:24:09;9.00;;;1.27;;
54787;SDS011;59598;48.112;16.280;2023-03-14T09:26:41;1.27;;;1.17;;
54787;SDS011;59598;48.112;16.280;2023-03-14T09:29:12;2.38;;;1.00;;
54787;SDS011;59598;48.112;16.280;2023-03-14T09:31:44;1.40;;;1.30;;
54787;SDS011;59598;48.112;16.280;2023-03-14T09:34:15;1.30;;;1.20;;
54787;SDS011;59598;48.112;16.280;2023-03-14T09:36:49;0.90;;;0.90;;
54787;SDS011;59598;48.112;16.280;2023-03-14T09:39:21;0.80;;;0.80;;
54787;SDS011;59598;48.112;16.280;2023-03-14T09:41:53;3.78;;;1.05;;
54787;SDS011;59598;48.112;16.280;2023-03-14T09:44:32;1.42;;;0.90;;
54787;SDS011;59598;48.112;16.280;2023-03-14T09:47:11;1.65;;;0.93;;
54787;SDS011;59598;48.112;16.280;2023-03-14T09:49:44;1.10;;;1.00;;
54787;SDS011;59598;48.112;16.280;2023-03-14T09:52:17;1.05;;;1.00;;
54787;SDS011;59598;48.112;16.280;2023-03-14T09:54:54;1.25;;;0.90;;
54787;SDS011;59598;48.112;16.280;2023-03-14T09:57:33;0.80;;;0.80;;
54787;SDS011;59598;48.112;16.280;2023-03-14T10:00:15;1.02;;;0.80;;
54787;SDS011;59598;48.112;16.280;2023-03-14T10:02:59;2.65;;;2.00;;
54787;SDS011;59598;48.112;16.280;2023-03-14T10:05:52;4.35;;;2.42;;
54787;SDS011;59598;48.112;16.280;2023-03-14T10:08:25;4.05;;;2.05;;
54787;SDS011;59598;48.112;16.280;2023-03-14T10:10:57;3.67;;;2.55;;
54787;SDS011;59598;48.112;16.280;2023-03-14T10:13:33;3.38;;;2.30;;
54787;SDS011;59598;48.112;16.280;2023-03-14T10:16:04;4.07;;;2.42;;
54787;SDS011;59598;48.112;16.280;2023-03-14T10:18:44;2.13;;;1.92;;
54787;SDS011;59598;48.112;16.280;2023-03-14T10:21:27;3.08;;;2.78;;
54787;SDS011;59598;48.112;16.280;2023-03-14T10:24:08;3.13;;;1.90;;
54787;SDS011;59598;48.112;16.280;2023-03-14T10:26:59;3.15;;;2.17;;
54787;SDS011;59598;48.112;16.280;2023-03-14T10:29:51;2.53;;;2.00;;
54787;SDS011;59598;48.112;16.280;2023-03-14T10:32:35;1.17;;;0.98;;
54787;SDS011;59598;48.112;16.280;2023-03-14T10:40:33;0.80;;;0.80;;
54787;SDS011;59598;48.112;16.280;2023-03-14T10:43:13;1.02;;;0.90;;
54787;SDS011;59598;48.112;16.280;2023-03-14T10:46:14;0.98;;;0.98;;
54787;SDS011;59598;48.112;16.280;2023-03-14T10:48:46;1.00;;;1.00;;
54787;SDS011;59598;48.112;16.280;2023-03-14T10:51:24;1.00;;;1.00;;
54787;SDS011;59598;48.112;16.280;2023-03-14T10:54:00;3.05;;;1.10;;
54787;SDS011;59598;48.112;16.280;2023-03-14T10:56:43;1.60;;;1.50;;
54787;SDS011;59598;48.112;16.280;2023-03-14T10:59:14;2.88;;;0.93;;
54787;SDS011;59598;48.112;16.280;2023-03-14T11:19:31;0.80;;;0.80;;
54787;SDS011;59598;48.112;16.280;2023-03-14T11:25:18;1.00;;;0.90;;
54787;SDS011;59598;48.112;16.280;2023-03-14T11:28:08;1.10;;;0.60;;
54787;SDS011;59598;48.112;16.280;2023-03-14T11:30:55;0.70;;;0.70;;
54787;SDS011;59598;48.112;16.280;2023-03-14T11:40:10;0.70;;;0.70;;
54787;SDS011;59598;48.112;16.280;2023-03-14T11:45:41;1.65;;;0.77;;
54787;SDS011;59598;48.112;16.280;2023-03-14T11:50:52;1.10;;;0.88;;
54787;SDS011;59598;48.112;16.280;2023-03-14T11:53:39;0.80;;;0.80;;
54787;SDS011;59598;48.112;16.280;2023-03-14T11:56:34;1.00;;;1.00;;
54787;SDS011;59598;48.112;16.280;2023-03-14T11:59:21;0.93;;;0.75;;
54787;SDS011;59598;48.112;16.280;2023-03-14T12:02:13;0.80;;;0.70;;
54787;SDS011;59598;48.112;16.280;2023-03-14T12:10:54;0.80;;;0.80;;
54787;SDS011;59598;48.112;16.280;2023-03-14T12:13:41;1.58;;;0.77;;
54787;SDS011;59598;48.112;16.280;2023-03-14T12:18:56;0.80;;;0.80;;
54787;SDS011;59598;48.112;16.280;2023-03-14T12:21:49;0.68;;;0.68;;
54787;SDS011;59598;48.112;16.280;2023-03-14T12:24:29;1.20;;;1.02;;
54787;SDS011;59598;48.112;16.280;2023-03-14T12:27:04;0.80;;;0.80;;
54787;SDS011;59598;48.112;16.280;2023-03-14T12:29:57;0.60;;;0.60;;
54787;SDS011;59598;48.112;16.280;2023-03-14T12:32:34;0.82;;;0.82;;
54787;SDS011;59598;48.112;16.280;2023-03-14T12:41:26;0.60;;;0.60;;
54787;SDS011;59598;48.112;16.280;2023-03-14T12:49:49;1.13;;;0.70;;
54787;SDS011;59598;48.112;16.280;2023-03-14T12:52:33;1.15;;;1.13;;
54787;SDS011;59598;48.112;16.280;2023-03-14T12:55:24;1.95;;;0.80;;
54787;SDS011;59598;48.112;16.280;2023-03-14T13:01:14;1.55;;;0.70;;
54787;SDS011;59598;48.112;16.280;2023-03-14T13:03:56;0.70;;;0.70;;
54787;SDS011;59598;48.112;16.280;2023-03-14T13:06:46;1.30;;;0.85;;
54787;SDS011;59598;48.112;16.280;2023-03-14T13:12:03;2.42;;;1.58;;
54787;SDS011;59598;48.112;16.280;2023-03-14T13:14:48;1.98;;;1.30;;
54787;SDS011;59598;48.112;16.280;2023-03-14T13:17:26;1.20;;;1.10;;
54787;SDS011;59598;48.112;16.280;2023-03-14T13:20:05;1.05;;;0.93;;
54787;SDS011;59598;48.112;16.280;2023-03-14T13:22:51;1.05;;;0.90;;
54787;SDS011;59598;48.112;16.280;2023-03-14T13:25:28;1.08;;;0.98;;
54787;SDS011;59598;48.112;16.280;2023-03-14T13:28:08;0.75;;;0.75;;
54787;SDS011;59598;48.112;16.280;2023-03-14T13:30:44;0.70;;;0.70;;
54787;SDS011;59598;48.112;16.280;2023-03-14T13:33:31;0.80;;;0.80;;
54787;SDS011;59598;48.112;16.280;2023-03-14T13:36:05;0.73;;;0.73;;
54787;SDS011;59598;48.112;16.280;2023-03-14T13:38:43;1.00;;;1.00;;
54787;SDS011;59598;48.112;16.280;2023-03-14T13:41:14;1.45;;;1.13;;
54787;SDS011;59598;48.112;16.280;2023-03-14T13:43:46;1.10;;;1.10;;
54787;SDS011;59598;48.112;16.280;2023-03-14T13:46:22;0.70;;;0.70;;
54787;SDS011;59598;48.112;16.280;2023-03-14T13:48:56;0.60;;;0.60;;
54787;SDS011;59598;48.112;16.280;2023-03-14T13:51:37;1.63;;;0.65;;
54787;SDS011;59598;48.112;16.280;2023-03-14T13:54:13;0.70;;;0.70;;
54787;SDS011;59598;48.112;16.280;2023-03-14T13:56:59;0.68;;;0.68;;
54787;SDS011;59598;48.112;16.280;2023-03-14T13:59:39;0.68;;;0.68;;
54787;SDS011;59598;48.112;16.280;2023-03-14T14:02:12;0.70;;;0.70;;
54787;SDS011;59598;48.112;16.280;2023-03-14T14:04:45;0.63;;;0.63;;
54787;SDS011;59598;48.112;16.280;2023-03-14T14:07:18;0.60;;;0.60;;
54787;SDS011;59598;48.112;16.280;2023-03-14T14:09:50;1.98;;;0.55;;
54787;SDS011;59598;48.112;16.280;2023-03-14T14:12:29;0.70;;;0.70;;
54787;SDS011;59598;48.112;16.280;2023-03-14T14:15:07;1.50;;;0.80;;
54787;SDS011;59598;48.112;16.280;2023-03-14T14:17:51;0.80;;;0.80;;
54787;SDS011;59598;48.112;16.280;2023-03-14T14:20:30;0.63;;;0.63;;
54787;SDS011;59598;48.112;16.280;2023-03-14T14:23:09;0.80;;;0.80;;
54787;SDS011;59598;48.112;16.280;2023-03-14T14:25:45;1.38;;;1.27;;
54787;SDS011;59598;48.112;16.280;2023-03-14T14:28:35;1.10;;;1.10;;
54787;SDS011;59598;48.112;16.280;2023-03-14T14:33:46;0.68;;;0.68;;
54787;SDS011;59598;48.112;16.280;2023-03-14T14:36:27;0.90;;;0.90;;
54787;SDS011;59598;48.112;16.280;2023-03-14T14:39:04;0.70;;;0.70;;
54787;SDS011;59598;48.112;16.280;2023-03-14T14:41:57;1.70;;;0.80;;
54787;SDS011;59598;48.112;16.280;2023-03-14T14:44:31;0.65;;;0.65;;
54787;SDS011;59598;48.112;16.280;2023-03-14T14:47:14;0.70;;;0.70;;
54787;SDS011;59598;48.112;16.280;2023-03-14T14:49:52;0.60;;;0.60;;
54787;SDS011;59598;48.112;16.280;2023-03-14T14:52:40;1.15;;;1.15;;
54787;SDS011;59598;48.112;16.280;2023-03-14T14:55:17;0.90;;;0.70;;
54787;SDS011;59598;48.112;16.280;2023-03-14T14:57:53;1.73;;;1.30;;
54787;SDS011;59598;48.112;16.280;2023-03-14T15:00:28;0.90;;;0.90;;
54787;SDS011;59598;48.112;16.280;2023-03-14T15:03:10;1.17;;;1.00;;
54787;SDS011;59598;48.112;16.280;2023-03-14T15:05:45;0.95;;;0.90;;
54787;SDS011;59598;48.112;16.280;2023-03-14T15:08:27;1.85;;;1.33;;
54787;SDS011;59598;48.112;16.280;2023-03-14T15:11:01;1.80;;;0.90;;
54787;SDS011;59598;48.112;16.280;2023-03-14T15:13:35;2.08;;;1.02;;
54787;SDS011;59598;48.112;16.280;2023-03-14T15:16:10;1.00;;;1.00;;
54787;SDS011;59598;48.112;16.280;2023-03-14T15:18:43;1.02;;;0.90;;
54787;SDS011;59598;48.112;16.280;2023-03-14T15:21:17;1.00;;;1.00;;
54787;SDS011;59598;48.112;16.280;2023-03-14T15:23:54;1.02;;;1.00;;
54787;SDS011;59598;48.112;16.280;2023-03-14T15:26:26;0.98;;;0.98;;
54787;SDS011;59598;48.112;16.280;2023-03-14T15:29:02;1.30;;;0.80;;
54787;SDS011;59598;48.112;16.280;2023-03-14T15:31:39;1.15;;;1.00;;
54787;SDS011;59598;48.112;16.280;2023-03-14T15:34:14;1.15;;;1.05;;
54787;SDS011;59598;48.112;16.280;2023-03-14T15:36:50;1.05;;;0.90;;
54787;SDS011;59598;48.112;16.280;2023-03-14T15:39:22;2.63;;;1.10;;
54787;SDS011;59598;48.112;16.280;2023-03-14T15:41:53;1.42;;;1.00;;
54787;SDS011;59598;48.112;16.280;2023-03-14T15:44:25;1.98;;;1.40;;
54787;SDS011;59598;48.112;16.280;2023-03-14T15:46:56;1.30;;;1.20;;
54787;SDS011;59598;48.112;16.280;2023-03-14T15:49:28;1.50;;;1.40;;
54787;SDS011;59598;48.112;16.280;2023-03-14T15:52:00;2.10;;;1.30;;
54787;SDS011;59598;48.112;16.280;2023-03-14T15:54:33;1.50;;;1.40;;
54787;SDS011;59598;48.112;16.280;2023-03-14T15:57:09;1.58;;;1.45;;
54787;SDS011;59598;48.112;16.280;2023-03-14T15:59:41;2.38;;;2.17;;
54787;SDS011;59598;48.112;16.280;2023-03-14T16:02:16;2.35;;;2.03;;
54787;SDS011;59598;48.112;16.280;2023-03-14T16:04:50;3.20;;;2.55;;
54787;SDS011;59598;48.112;16.280;2023-03-14T16:07:24;2.20;;;2.00;;
54787;SDS011;59598;48.112;16.280;2023-03-14T16:09:55;2.80;;;2.38;;
54787;SDS011;59598;48.112;16.280;2023-03-14T16:12:26;4.03;;;3.33;;
54787;SDS011;59598;48.112;16.280;2023-03-14T16:14:58;6.60;;;4.93;;
54787;SDS011;59598;48.112;16.280;2023-03-14T16:17:32;2.50;;;2.17;;
54787;SDS011;59598;48.112;16.280;2023-03-14T16:20:04;4.85;;;3.33;;
54787;SDS011;59598;48.112;16.280;2023-03-14T16:22:36;3.67;;;2.28;;
54787;SDS011;59598;48.112;16.280;2023-03-14T16:25:08;3.88;;;2.72;;
54787;SDS011;59598;48.112;16.280;2023-03-14T16:27:41;4.68;;;3.83;;
54787;SDS011;59598;48.112;16.280;2023-03-14T16:30:13;3.60;;;2.20;;
54787;SDS011;59598;48.112;16.280;2023-03-14T16:32:45;4.00;;;3.00;;
54787;SDS011;59598;48.112;16.280;2023-03-14T16:35:18;5.20;;;3.38;;
54787;SDS011;59598;48.112;16.280;2023-03-14T16:37:51;3.42;;;2.55;;
54787;SDS011;59598;48.112;16.280;2023-03-14T16:40:25;1.95;;;1.83;;
54787;SDS011;59598;48.112;16.280;2023-03-14T16:42:58;2.72;;;1.90;;
54787;SDS011;59598;48.112;16.280;2023-03-14T16:45:35;2.45;;;2.15;;
54787;SDS011;59598;48.112;16.280;2023-03-14T16:48:08;2.53;;;2.00;;
54787;SDS011;59598;48.112;16.280;2023-03-14T16:50:40;5.05;;;3.63;;